KSOP/SOP METAR and TAF weather

Enter ICAO airport designator
Station Type Date Time Source
KSOP METAR 2019/08/23 14:56 UTC NOAA

KSOP 231456Z AUTO 23006KT 10SM CLR 31/23 A3005 RMK AO2 SLP175 T03060233 58002


Station Type Date Time Source
KSOP Decoded METAR 2019/08/23 14:56 UTC NOAA

Station name not available
Aug 23, 2019 - 10:56 AM EDT / 2019.08.23 1456 UTC
Wind: from the SW (230 degrees) at 7 MPH (6 KT):0
Visibility: 10 mile(s):0
Sky conditions: clear
Temperature: 87.1 F (30.6 C)
Heat index: 95.4 F (35.2 C):1
Dew Point: 73.9 F (23.3 C)
Relative Humidity: 65%
Pressure (altimeter): 30.05 in. Hg (1017 hPa)
Pressure tendency: 0.01 inches (0.2 hPa) lower than three hours ago
ob: KSOP 231456Z AUTO 23006KT 10SM CLR 31/23 A3005 RMK AO2 SLP175 T03060233 58002
cycle: 15

Station Type Date Time Source
KSOP TAF UTC NOAA

Error!

Example: see airport list